sensor_id;sensor_type;location;lat;lon;timestamp;temperature;humidity
19999;DHT22;10160;50.926;4.374;2023-02-28T00:00:23;2.60;99.90
19999;DHT22;10160;50.926;4.374;2023-02-28T00:02:49;2.70;99.90
19999;DHT22;10160;50.926;4.374;2023-02-28T00:05:18;2.70;99.90
19999;DHT22;10160;50.926;4.374;2023-02-28T00:07:44;2.80;99.90
19999;DHT22;10160;50.926;4.374;2023-02-28T00:10:16;2.70;99.90
19999;DHT22;10160;50.926;4.374;2023-02-28T00:12:49;2.70;99.90
19999;DHT22;10160;50.926;4.374;2023-02-28T00:15:15;2.60;99.90
19999;DHT22;10160;50.926;4.374;2023-02-28T00:17:41;2.50;99.90
19999;DHT22;10160;50.926;4.374;2023-02-28T00:20:08;2.50;99.90
19999;DHT22;10160;50.926;4.374;2023-02-28T00:22:36;2.40;99.90
19999;DHT22;10160;50.926;4.374;2023-02-28T00:25:03;2.30;99.90
19999;DHT22;10160;50.926;4.374;2023-02-28T00:27:29;2.30;99.90
19999;DHT22;10160;50.926;4.374;2023-02-28T00:29:55;2.30;99.90
19999;DHT22;10160;50.926;4.374;2023-02-28T00:32:21;2.40;99.90
19999;DHT22;10160;50.926;4.374;2023-02-28T00:34:47;2.50;99.90
19999;DHT22;10160;50.926;4.374;2023-02-28T00:37:13;2.50;99.90
19999;DHT22;10160;50.926;4.374;2023-02-28T00:39:38;2.60;99.90
19999;DHT22;10160;50.926;4.374;2023-02-28T00:42:05;2.50;99.90
19999;DHT22;10160;50.926;4.374;2023-02-28T00:44:31;2.50;99.90
19999;DHT22;10160;50.926;4.374;2023-02-28T00:46:57;2.50;99.90
19999;DHT22;10160;50.926;4.374;2023-02-28T00:49:23;2.50;99.90
19999;DHT22;10160;50.926;4.374;2023-02-28T00:51:50;2.50;99.90
19999;DHT22;10160;50.926;4.374;2023-02-28T00:54:16;2.50;99.90
19999;DHT22;10160;50.926;4.374;2023-02-28T00:56:42;2.40;99.90
19999;DHT22;10160;50.926;4.374;2023-02-28T00:59:08;2.50;99.90
19999;DHT22;10160;50.926;4.374;2023-02-28T01:01:34;2.60;99.90
19999;DHT22;10160;50.926;4.374;2023-02-28T01:04:00;2.60;99.90
19999;DHT22;10160;50.926;4.374;2023-02-28T01:06:26;2.50;99.90
19999;DHT22;10160;50.926;4.374;2023-02-28T01:08:52;2.50;99.90
19999;DHT22;10160;50.926;4.374;2023-02-28T01:11:18;2.50;99.90
19999;DHT22;10160;50.926;4.374;2023-02-28T01:13:45;2.50;99.90
19999;DHT22;10160;50.926;4.374;2023-02-28T01:16:12;2.50;99.90
19999;DHT22;10160;50.926;4.374;2023-02-28T01:18:38;2.40;99.90
19999;DHT22;10160;50.926;4.374;2023-02-28T01:21:05;2.40;99.90
19999;DHT22;10160;50.926;4.374;2023-02-28T01:23:31;2.40;99.90
19999;DHT22;10160;50.926;4.374;2023-02-28T01:25:57;2.30;99.90
19999;DHT22;10160;50.926;4.374;2023-02-28T01:28:23;2.50;99.90
19999;DHT22;10160;50.926;4.374;2023-02-28T01:30:49;2.50;99.90
19999;DHT22;10160;50.926;4.374;2023-02-28T01:33:15;2.50;99.90
19999;DHT22;10160;50.926;4.374;2023-02-28T01:35:41;2.40;99.90
19999;DHT22;10160;50.926;4.374;2023-02-28T01:38:07;2.30;99.90
19999;DHT22;10160;50.926;4.374;2023-02-28T01:40:32;2.30;99.90
19999;DHT22;10160;50.926;4.374;2023-02-28T01:42:58;2.30;99.90
19999;DHT22;10160;50.926;4.374;2023-02-28T01:45:27;2.30;99.90
19999;DHT22;10160;50.926;4.374;2023-02-28T01:48:05;2.40;99.90
19999;DHT22;10160;50.926;4.374;2023-02-28T01:50:38;2.30;99.90
19999;DHT22;10160;50.926;4.374;2023-02-28T01:53:07;2.30;99.90
19999;DHT22;10160;50.926;4.374;2023-02-28T01:55:36;2.20;99.90
19999;DHT22;10160;50.926;4.374;2023-02-28T01:58:04;2.20;99.90
19999;DHT22;10160;50.926;4.374;2023-02-28T02:00:32;2.20;99.90
19999;DHT22;10160;50.926;4.374;2023-02-28T02:03:06;2.10;99.90
19999;DHT22;10160;50.926;4.374;2023-02-28T02:05:36;2.20;99.90
19999;DHT22;10160;50.926;4.374;2023-02-28T02:08:05;2.10;99.90
19999;DHT22;10160;50.926;4.374;2023-02-28T02:11:10;2.10;99.90
19999;DHT22;10160;50.926;4.374;2023-02-28T02:25:27;2.00;99.90
19999;DHT22;10160;50.926;4.374;2023-02-28T02:37:36;1.90;99.90
19999;DHT22;10160;50.926;4.374;2023-02-28T02:39:47;1.90;99.90
19999;DHT22;10160;50.926;4.374;2023-02-28T02:42:18;1.80;99.90
19999;DHT22;10160;50.926;4.374;2023-02-28T02:45:14;1.90;99.90
19999;DHT22;10160;50.926;4.374;2023-02-28T02:47:43;1.90;99.90
19999;DHT22;10160;50.926;4.374;2023-02-28T02:50:14;1.90;99.90
19999;DHT22;10160;50.926;4.374;2023-02-28T02:52:47;1.90;99.90
19999;DHT22;10160;50.926;4.374;2023-02-28T02:55:15;2.00;99.90
19999;DHT22;10160;50.926;4.374;2023-02-28T02:57:58;2.00;99.90
19999;DHT22;10160;50.926;4.374;2023-02-28T03:00:30;2.00;99.90
19999;DHT22;10160;50.926;4.374;2023-02-28T03:02:57;1.90;99.90
19999;DHT22;10160;50.926;4.374;2023-02-28T03:05:33;2.00;99.90
19999;DHT22;10160;50.926;4.374;2023-02-28T03:07:59;1.90;99.90
19999;DHT22;10160;50.926;4.374;2023-02-28T03:10:36;2.00;99.90
19999;DHT22;10160;50.926;4.374;2023-02-28T03:16:16;1.90;99.90
19999;DHT22;10160;50.926;4.374;2023-02-28T03:24:10;1.70;99.90
19999;DHT22;10160;50.926;4.374;2023-02-28T03:26:43;1.80;99.90
19999;DHT22;10160;50.926;4.374;2023-02-28T03:29:23;1.80;99.90
19999;DHT22;10160;50.926;4.374;2023-02-28T03:31:56;1.80;99.90
19999;DHT22;10160;50.926;4.374;2023-02-28T03:37:04;1.70;99.90
19999;DHT22;10160;50.926;4.374;2023-02-28T03:39:45;1.70;99.90
19999;DHT22;10160;50.926;4.374;2023-02-28T03:42:19;1.70;99.90
19999;DHT22;10160;50.926;4.374;2023-02-28T03:44:59;1.70;99.90
19999;DHT22;10160;50.926;4.374;2023-02-28T03:47:36;1.70;99.90
19999;DHT22;10160;50.926;4.374;2023-02-28T03:50:22;1.60;99.90
19999;DHT22;10160;50.926;4.374;2023-02-28T03:52:58;1.50;99.90
19999;DHT22;10160;50.926;4.374;2023-02-28T03:55:28;1.50;99.90
19999;DHT22;10160;50.926;4.374;2023-02-28T03:58:14;1.60;99.90
19999;DHT22;10160;50.926;4.374;2023-02-28T04:00:46;1.60;99.90
19999;DHT22;10160;50.926;4.374;2023-02-28T04:03:14;1.50;99.90
19999;DHT22;10160;50.926;4.374;2023-02-28T04:05:52;1.50;99.90
19999;DHT22;10160;50.926;4.374;2023-02-28T04:08:19;1.50;99.90
19999;DHT22;10160;50.926;4.374;2023-02-28T04:10:50;1.50;99.90
19999;DHT22;10160;50.926;4.374;2023-02-28T04:13:16;1.50;99.90
19999;DHT22;10160;50.926;4.374;2023-02-28T04:15:42;1.40;99.90
19999;DHT22;10160;50.926;4.374;2023-02-28T04:18:08;1.40;99.90
19999;DHT22;10160;50.926;4.374;2023-02-28T04:20:33;1.40;99.90
19999;DHT22;10160;50.926;4.374;2023-02-28T04:23:01;1.40;99.90
19999;DHT22;10160;50.926;4.374;2023-02-28T04:25:26;1.40;99.90
19999;DHT22;10160;50.926;4.374;2023-02-28T04:27:52;1.40;99.90
19999;DHT22;10160;50.926;4.374;2023-02-28T04:30:18;1.30;99.90
19999;DHT22;10160;50.926;4.374;2023-02-28T04:32:43;1.00;99.90
19999;DHT22;10160;50.926;4.374;2023-02-28T04:35:09;1.20;99.90
19999;DHT22;10160;50.926;4.374;2023-02-28T04:37:35;1.40;99.90
19999;DHT22;10160;50.926;4.374;2023-02-28T04:40:03;1.40;99.90
19999;DHT22;10160;50.926;4.374;2023-02-28T04:42:29;1.50;99.90
19999;DHT22;10160;50.926;4.374;2023-02-28T04:45:02;1.50;99.90
19999;DHT22;10160;50.926;4.374;2023-02-28T04:47:28;1.50;99.90
19999;DHT22;10160;50.926;4.374;2023-02-28T04:49:53;1.60;99.90
19999;DHT22;10160;50.926;4.374;2023-02-28T04:52:19;1.70;99.90
19999;DHT22;10160;50.926;4.374;2023-02-28T04:54:45;1.70;99.90
19999;DHT22;10160;50.926;4.374;2023-02-28T04:57:10;1.70;99.90
19999;DHT22;10160;50.926;4.374;2023-02-28T04:59:36;1.80;99.90
19999;DHT22;10160;50.926;4.374;2023-02-28T05:02:02;1.80;99.90
19999;DHT22;10160;50.926;4.374;2023-02-28T05:04:32;1.80;99.90
19999;DHT22;10160;50.926;4.374;2023-02-28T05:07:00;1.80;99.90
19999;DHT22;10160;50.926;4.374;2023-02-28T05:09:26;1.80;99.90
19999;DHT22;10160;50.926;4.374;2023-02-28T05:11:53;1.80;99.90
19999;DHT22;10160;50.926;4.374;2023-02-28T05:14:19;1.90;99.90
19999;DHT22;10160;50.926;4.374;2023-02-28T05:16:44;1.90;99.90
19999;DHT22;10160;50.926;4.374;2023-02-28T05:19:10;2.00;99.90
19999;DHT22;10160;50.926;4.374;2023-02-28T05:21:38;2.10;99.90
19999;DHT22;10160;50.926;4.374;2023-02-28T05:24:09;2.20;99.90
19999;DHT22;10160;50.926;4.374;2023-02-28T05:26:39;2.20;99.90
19999;DHT22;10160;50.926;4.374;2023-02-28T05:29:06;2.30;99.90
19999;DHT22;10160;50.926;4.374;2023-02-28T05:31:32;2.40;99.90
19999;DHT22;10160;50.926;4.374;2023-02-28T05:33:57;2.30;99.90
19999;DHT22;10160;50.926;4.374;2023-02-28T05:36:23;2.40;99.90
19999;DHT22;10160;50.926;4.374;2023-02-28T05:38:50;2.40;99.90
19999;DHT22;10160;50.926;4.374;2023-02-28T05:41:17;2.30;99.90
19999;DHT22;10160;50.926;4.374;2023-02-28T05:43:44;2.40;99.90
19999;DHT22;10160;50.926;4.374;2023-02-28T05:46:11;2.40;99.90
19999;DHT22;10160;50.926;4.374;2023-02-28T05:48:38;2.50;99.90
19999;DHT22;10160;50.926;4.374;2023-02-28T05:51:05;2.60;99.90
19999;DHT22;10160;50.926;4.374;2023-02-28T05:53:31;2.70;99.90
19999;DHT22;10160;50.926;4.374;2023-02-28T05:55:57;2.70;99.90
19999;DHT22;10160;50.926;4.374;2023-02-28T05:58:23;2.70;99.90
19999;DHT22;10160;50.926;4.374;2023-02-28T06:00:51;2.70;99.90
19999;DHT22;10160;50.926;4.374;2023-02-28T06:03:16;2.80;99.90
19999;DHT22;10160;50.926;4.374;2023-02-28T06:05:42;2.70;99.90
19999;DHT22;10160;50.926;4.374;2023-02-28T06:08:08;2.80;99.90
19999;DHT22;10160;50.926;4.374;2023-02-28T06:10:34;2.80;99.90
19999;DHT22;10160;50.926;4.374;2023-02-28T06:13:01;2.80;99.90
19999;DHT22;10160;50.926;4.374;2023-02-28T06:15:30;2.90;99.90
19999;DHT22;10160;50.926;4.374;2023-02-28T06:17:56;3.00;99.90
19999;DHT22;10160;50.926;4.374;2023-02-28T06:20:22;2.90;99.90
19999;DHT22;10160;50.926;4.374;2023-02-28T06:22:48;2.90;99.90
19999;DHT22;10160;50.926;4.374;2023-02-28T06:25:16;3.00;99.90
19999;DHT22;10160;50.926;4.374;2023-02-28T06:27:42;3.00;99.90
19999;DHT22;10160;50.926;4.374;2023-02-28T06:30:09;3.10;99.90
19999;DHT22;10160;50.926;4.374;2023-02-28T06:32:35;3.10;99.90
19999;DHT22;10160;50.926;4.374;2023-02-28T06:35:02;3.00;99.90
19999;DHT22;10160;50.926;4.374;2023-02-28T06:37:27;3.10;99.90
19999;DHT22;10160;50.926;4.374;2023-02-28T06:39:54;3.10;99.90
19999;DHT22;10160;50.926;4.374;2023-02-28T06:42:22;3.10;99.90
19999;DHT22;10160;50.926;4.374;2023-02-28T06:44:50;3.10;99.90
19999;DHT22;10160;50.926;4.374;2023-02-28T06:47:16;3.20;99.90
19999;DHT22;10160;50.926;4.374;2023-02-28T06:49:42;3.20;99.90
19999;DHT22;10160;50.926;4.374;2023-02-28T06:52:10;3.20;99.90
19999;DHT22;10160;50.926;4.374;2023-02-28T06:54:36;3.30;99.90
19999;DHT22;10160;50.926;4.374;2023-02-28T06:57:02;3.30;99.90
19999;DHT22;10160;50.926;4.374;2023-02-28T06:59:28;3.50;99.90
19999;DHT22;10160;50.926;4.374;2023-02-28T07:01:54;3.80;99.90
19999;DHT22;10160;50.926;4.374;2023-02-28T07:04:21;4.00;99.90
19999;DHT22;10160;50.926;4.374;2023-02-28T07:06:47;4.30;99.90
19999;DHT22;10160;50.926;4.374;2023-02-28T07:09:12;4.70;99.90
19999;DHT22;10160;50.926;4.374;2023-02-28T07:11:40;5.00;99.90
19999;DHT22;10160;50.926;4.374;2023-02-28T07:14:06;5.30;99.90
19999;DHT22;10160;50.926;4.374;2023-02-28T07:16:32;5.30;99.90
19999;DHT22;10160;50.926;4.374;2023-02-28T07:18:58;5.30;99.90
19999;DHT22;10160;50.926;4.374;2023-02-28T07:21:24;5.10;99.90
19999;DHT22;10160;50.926;4.374;2023-02-28T07:23:50;5.10;99.90
19999;DHT22;10160;50.926;4.374;2023-02-28T07:26:17;5.00;99.90
19999;DHT22;10160;50.926;4.374;2023-02-28T07:28:45;4.90;99.90
19999;DHT22;10160;50.926;4.374;2023-02-28T07:31:12;5.00;99.90
19999;DHT22;10160;50.926;4.374;2023-02-28T07:33:39;5.00;99.90
19999;DHT22;10160;50.926;4.374;2023-02-28T07:36:11;5.00;99.90
19999;DHT22;10160;50.926;4.374;2023-02-28T07:38:42;5.20;99.90
19999;DHT22;10160;50.926;4.374;2023-02-28T07:41:08;5.30;99.90
19999;DHT22;10160;50.926;4.374;2023-02-28T07:43:34;5.40;99.90
19999;DHT22;10160;50.926;4.374;2023-02-28T07:46:09;5.40;99.90
19999;DHT22;10160;50.926;4.374;2023-02-28T07:48:35;5.60;99.90
19999;DHT22;10160;50.926;4.374;2023-02-28T07:51:02;5.60;99.90
19999;DHT22;10160;50.926;4.374;2023-02-28T07:53:28;5.90;99.90
19999;DHT22;10160;50.926;4.374;2023-02-28T07:55:58;6.10;99.90
19999;DHT22;10160;50.926;4.374;2023-02-28T07:58:24;6.30;99.90
19999;DHT22;10160;50.926;4.374;2023-02-28T08:00:50;6.50;99.90
19999;DHT22;10160;50.926;4.374;2023-02-28T08:03:20;6.90;99.90
19999;DHT22;10160;50.926;4.374;2023-02-28T08:05:47;7.00;99.90
19999;DHT22;10160;50.926;4.374;2023-02-28T08:08:13;6.80;99.90
19999;DHT22;10160;50.926;4.374;2023-02-28T08:10:39;6.50;99.90
19999;DHT22;10160;50.926;4.374;2023-02-28T08:13:05;6.40;99.90
19999;DHT22;10160;50.926;4.374;2023-02-28T08:15:31;6.20;99.90
19999;DHT22;10160;50.926;4.374;2023-02-28T08:17:57;6.20;99.90
19999;DHT22;10160;50.926;4.374;2023-02-28T08:20:24;5.90;99.90
19999;DHT22;10160;50.926;4.374;2023-02-28T08:22:49;5.80;99.90
19999;DHT22;10160;50.926;4.374;2023-02-28T08:25:15;5.80;99.90
19999;DHT22;10160;50.926;4.374;2023-02-28T08:27:41;5.80;99.90
19999;DHT22;10160;50.926;4.374;2023-02-28T08:30:07;5.60;99.90
19999;DHT22;10160;50.926;4.374;2023-02-28T08:32:35;5.70;99.90
19999;DHT22;10160;50.926;4.374;2023-02-28T08:35:01;5.60;99.90
19999;DHT22;10160;50.926;4.374;2023-02-28T08:37:28;5.40;99.90
19999;DHT22;10160;50.926;4.374;2023-02-28T08:39:53;5.40;99.90
19999;DHT22;10160;50.926;4.374;2023-02-28T08:42:19;5.40;99.90
19999;DHT22;10160;50.926;4.374;2023-02-28T08:44:45;5.60;99.90
19999;DHT22;10160;50.926;4.374;2023-02-28T08:47:11;5.70;99.90
19999;DHT22;10160;50.926;4.374;2023-02-28T08:49:37;5.40;99.90
19999;DHT22;10160;50.926;4.374;2023-02-28T08:52:03;5.10;99.90
19999;DHT22;10160;50.926;4.374;2023-02-28T08:54:30;4.70;99.90
19999;DHT22;10160;50.926;4.374;2023-02-28T08:56:57;4.60;99.90
19999;DHT22;10160;50.926;4.374;2023-02-28T08:59:23;4.40;99.90
19999;DHT22;10160;50.926;4.374;2023-02-28T09:01:48;4.50;99.90
19999;DHT22;10160;50.926;4.374;2023-02-28T09:04:14;4.50;99.90
19999;DHT22;10160;50.926;4.374;2023-02-28T09:06:40;4.50;99.90
19999;DHT22;10160;50.926;4.374;2023-02-28T09:09:07;4.30;99.90
19999;DHT22;10160;50.926;4.374;2023-02-28T09:11:33;4.20;99.90
19999;DHT22;10160;50.926;4.374;2023-02-28T09:14:00;4.30;99.90
19999;DHT22;10160;50.926;4.374;2023-02-28T09:16:26;4.70;99.90
19999;DHT22;10160;50.926;4.374;2023-02-28T09:18:52;5.10;99.90
19999;DHT22;10160;50.926;4.374;2023-02-28T09:21:18;5.40;99.90
19999;DHT22;10160;50.926;4.374;2023-02-28T09:23:46;5.40;99.90
19999;DHT22;10160;50.926;4.374;2023-02-28T09:26:18;5.60;99.90
19999;DHT22;10160;50.926;4.374;2023-02-28T09:28:45;5.20;99.90
19999;DHT22;10160;50.926;4.374;2023-02-28T09:31:20;5.60;99.90
19999;DHT22;10160;50.926;4.374;2023-02-28T09:33:51;5.70;99.90
19999;DHT22;10160;50.926;4.374;2023-02-28T09:36:17;5.60;99.90
19999;DHT22;10160;50.926;4.374;2023-02-28T09:38:44;5.50;99.90
19999;DHT22;10160;50.926;4.374;2023-02-28T09:41:17;5.60;99.90
19999;DHT22;10160;50.926;4.374;2023-02-28T09:43:49;5.20;99.90
19999;DHT22;10160;50.926;4.374;2023-02-28T09:49:02;5.20;99.90
19999;DHT22;10160;50.926;4.374;2023-02-28T09:54:14;5.90;99.90
19999;DHT22;10160;50.926;4.374;2023-02-28T09:56:49;6.30;99.90
19999;DHT22;10160;50.926;4.374;2023-02-28T09:59:39;5.80;99.90
19999;DHT22;10160;50.926;4.374;2023-02-28T10:05:43;6.40;99.90
19999;DHT22;10160;50.926;4.374;2023-02-28T10:08:39;6.60;99.90
19999;DHT22;10160;50.926;4.374;2023-02-28T10:11:11;6.60;99.90
19999;DHT22;10160;50.926;4.374;2023-02-28T10:13:53;6.70;99.90
19999;DHT22;10160;50.926;4.374;2023-02-28T10:17:30;6.50;99.90
19999;DHT22;10160;50.926;4.374;2023-02-28T10:19:38;6.60;99.90
19999;DHT22;10160;50.926;4.374;2023-02-28T10:22:34;7.20;99.90
19999;DHT22;10160;50.926;4.374;2023-02-28T10:25:05;7.40;99.90
19999;DHT22;10160;50.926;4.374;2023-02-28T10:27:37;7.60;99.90
19999;DHT22;10160;50.926;4.374;2023-02-28T10:30:03;8.00;99.90
19999;DHT22;10160;50.926;4.374;2023-02-28T10:32:34;8.60;99.90
19999;DHT22;10160;50.926;4.374;2023-02-28T10:37:57;10.10;99.90
19999;DHT22;10160;50.926;4.374;2023-02-28T10:45:23;11.30;94.90
19999;DHT22;10160;50.926;4.374;2023-02-28T10:56:19;13.80;79.20
19999;DHT22;10160;50.926;4.374;2023-02-28T11:03:56;15.10;66.80
19999;DHT22;10160;50.926;4.374;2023-02-28T11:06:30;14.00;65.90
19999;DHT22;10160;50.926;4.374;2023-02-28T11:09:01;13.60;66.40
19999;DHT22;10160;50.926;4.374;2023-02-28T11:11:29;13.90;69.00
19999;DHT22;10160;50.926;4.374;2023-02-28T11:14:06;14.10;60.80
19999;DHT22;10160;50.926;4.374;2023-02-28T11:16:37;13.90;65.50
19999;DHT22;10160;50.926;4.374;2023-02-28T11:19:05;14.50;65.20
19999;DHT22;10160;50.926;4.374;2023-02-28T11:21:36;11.40;63.20
19999;DHT22;10160;50.926;4.374;2023-02-28T11:24:30;11.40;68.90
19999;DHT22;10160;50.926;4.374;2023-02-28T11:26:57;12.00;68.90
19999;DHT22;10160;50.926;4.374;2023-02-28T11:29:31;13.40;66.50
19999;DHT22;10160;50.926;4.374;2023-02-28T11:34:29;14.80;65.90
19999;DHT22;10160;50.926;4.374;2023-02-28T11:36:56;15.10;61.20
19999;DHT22;10160;50.926;4.374;2023-02-28T11:39:23;14.00;61.80
19999;DHT22;10160;50.926;4.374;2023-02-28T11:52:55;13.10;64.70
19999;DHT22;10160;50.926;4.374;2023-02-28T12:01:24;13.90;58.40
19999;DHT22;10160;50.926;4.374;2023-02-28T12:06:55;14.70;61.10
19999;DHT22;10160;50.926;4.374;2023-02-28T12:09:53;15.20;56.30
19999;DHT22;10160;50.926;4.374;2023-02-28T12:15:33;16.50;56.50
19999;DHT22;10160;50.926;4.374;2023-02-28T12:18:07;15.70;55.50
19999;DHT22;10160;50.926;4.374;2023-02-28T12:21:04;14.80;57.30
19999;DHT22;10160;50.926;4.374;2023-02-28T12:28:37;14.60;55.30
19999;DHT22;10160;50.926;4.374;2023-02-28T12:31:29;14.10;55.40
19999;DHT22;10160;50.926;4.374;2023-02-28T12:34:00;13.50;56.00
19999;DHT22;10160;50.926;4.374;2023-02-28T12:36:27;13.00;57.60
19999;DHT22;10160;50.926;4.374;2023-02-28T12:39:01;13.20;57.80
19999;DHT22;10160;50.926;4.374;2023-02-28T12:44:30;13.90;56.00
19999;DHT22;10160;50.926;4.374;2023-02-28T12:47:04;14.20;54.00
19999;DHT22;10160;50.926;4.374;2023-02-28T12:52:25;15.00;54.20
19999;DHT22;10160;50.926;4.374;2023-02-28T12:55:03;14.60;53.50
19999;DHT22;10160;50.926;4.374;2023-02-28T12:57:44;13.80;53.40
19999;DHT22;10160;50.926;4.374;2023-02-28T13:00:17;13.00;57.80
19999;DHT22;10160;50.926;4.374;2023-02-28T13:03:00;14.40;55.20
19999;DHT22;10160;50.926;4.374;2023-02-28T13:09:02;15.70;52.60
19999;DHT22;10160;50.926;4.374;2023-02-28T13:11:32;16.60;52.30
19999;DHT22;10160;50.926;4.374;2023-02-28T13:14:05;17.20;51.30
19999;DHT22;10160;50.926;4.374;2023-02-28T13:16:56;17.40;48.90
19999;DHT22;10160;50.926;4.374;2023-02-28T13:19:25;15.20;50.80
19999;DHT22;10160;50.926;4.374;2023-02-28T13:21:51;15.60;50.90
19999;DHT22;10160;50.926;4.374;2023-02-28T13:24:48;14.60;52.70
19999;DHT22;10160;50.926;4.374;2023-02-28T13:29:43;12.80;52.40
19999;DHT22;10160;50.926;4.374;2023-02-28T13:34:40;13.50;53.40
19999;DHT22;10160;50.926;4.374;2023-02-28T13:39:53;13.10;54.60
19999;DHT22;10160;50.926;4.374;2023-02-28T13:47:45;14.50;51.70
19999;DHT22;10160;50.926;4.374;2023-02-28T13:55:57;12.70;53.70
19999;DHT22;10160;50.926;4.374;2023-02-28T14:06:59;12.60;54.90
19999;DHT22;10160;50.926;4.374;2023-02-28T14:09:34;12.00;55.50
19999;DHT22;10160;50.926;4.374;2023-02-28T14:15:25;11.20;57.50
19999;DHT22;10160;50.926;4.374;2023-02-28T14:17:53;11.60;56.50
19999;DHT22;10160;50.926;4.374;2023-02-28T14:20:20;11.50;57.30
19999;DHT22;10160;50.926;4.374;2023-02-28T14:25:40;10.60;57.50
19999;DHT22;10160;50.926;4.374;2023-02-28T14:28:26;11.10;59.60
19999;DHT22;10160;50.926;4.374;2023-02-28T14:36:36;10.70;57.10
19999;DHT22;10160;50.926;4.374;2023-02-28T14:39:22;10.70;58.40
19999;DHT22;10160;50.926;4.374;2023-02-28T14:41:49;10.40;58.40
19999;DHT22;10160;50.926;4.374;2023-02-28T14:44:26;10.40;60.30
19999;DHT22;10160;50.926;4.374;2023-02-28T14:46:56;11.20;59.70
19999;DHT22;10160;50.926;4.374;2023-02-28T14:49:43;10.90;58.10
19999;DHT22;10160;50.926;4.374;2023-02-28T14:52:23;11.00;60.50
19999;DHT22;10160;50.926;4.374;2023-02-28T14:54:54;10.40;61.50
19999;DHT22;10160;50.926;4.374;2023-02-28T14:57:27;10.60;60.70
19999;DHT22;10160;50.926;4.374;2023-02-28T15:00:02;10.70;61.90
19999;DHT22;10160;50.926;4.374;2023-02-28T15:02:33;10.80;61.30
19999;DHT22;10160;50.926;4.374;2023-02-28T15:07:33;11.50;62.10
19999;DHT22;10160;50.926;4.374;2023-02-28T15:12:57;11.60;60.80
19999;DHT22;10160;50.926;4.374;2023-02-28T15:18:27;10.10;63.80
19999;DHT22;10160;50.926;4.374;2023-02-28T15:20:56;10.10;64.00
19999;DHT22;10160;50.926;4.374;2023-02-28T15:23:23;10.50;66.00
19999;DHT22;10160;50.926;4.374;2023-02-28T15:25:50;10.70;64.60
19999;DHT22;10160;50.926;4.374;2023-02-28T15:28:19;10.80;64.20
19999;DHT22;10160;50.926;4.374;2023-02-28T15:31:00;11.00;64.90
19999;DHT22;10160;50.926;4.374;2023-02-28T15:33:33;11.20;63.40
19999;DHT22;10160;50.926;4.374;2023-02-28T15:36:17;11.20;63.50
19999;DHT22;10160;50.926;4.374;2023-02-28T15:38:51;10.70;63.50
19999;DHT22;10160;50.926;4.374;2023-02-28T15:41:35;10.00;64.70
19999;DHT22;10160;50.926;4.374;2023-02-28T15:44:26;9.70;65.80
19999;DHT22;10160;50.926;4.374;2023-02-28T15:47:03;9.20;67.10
19999;DHT22;10160;50.926;4.374;2023-02-28T15:49:45;9.20;68.80
19999;DHT22;10160;50.926;4.374;2023-02-28T15:52:34;9.50;68.60
19999;DHT22;10160;50.926;4.374;2023-02-28T15:55:20;9.40;67.30
19999;DHT22;10160;50.926;4.374;2023-02-28T15:57:50;9.40;68.40
19999;DHT22;10160;50.926;4.374;2023-02-28T16:00:20;9.00;68.10
19999;DHT22;10160;50.926;4.374;2023-02-28T16:02:46;8.30;70.30
19999;DHT22;10160;50.926;4.374;2023-02-28T16:05:21;8.00;72.30
19999;DHT22;10160;50.926;4.374;2023-02-28T16:07:54;7.90;73.80
19999;DHT22;10160;50.926;4.374;2023-02-28T16:10:21;7.70;73.20
19999;DHT22;10160;50.926;4.374;2023-02-28T16:12:51;7.30;75.20
19999;DHT22;10160;50.926;4.374;2023-02-28T16:15:24;7.00;77.20
19999;DHT22;10160;50.926;4.374;2023-02-28T16:17:52;7.00;76.40
19999;DHT22;10160;50.926;4.374;2023-02-28T16:20:24;6.90;77.80
19999;DHT22;10160;50.926;4.374;2023-02-28T16:22:50;7.00;78.00
19999;DHT22;10160;50.926;4.374;2023-02-28T16:25:19;6.80;79.70
19999;DHT22;10160;50.926;4.374;2023-02-28T16:27:47;6.90;80.50
19999;DHT22;10160;50.926;4.374;2023-02-28T16:30:23;6.80;81.80
19999;DHT22;10160;50.926;4.374;2023-02-28T16:32:50;6.60;81.90
19999;DHT22;10160;50.926;4.374;2023-02-28T16:35:18;6.50;82.70
19999;DHT22;10160;50.926;4.374;2023-02-28T16:37:44;6.50;85.90
19999;DHT22;10160;50.926;4.374;2023-02-28T16:40:18;6.50;85.30
19999;DHT22;10160;50.926;4.374;2023-02-28T16:42:46;6.80;86.20
19999;DHT22;10160;50.926;4.374;2023-02-28T16:45:22;6.60;86.20
19999;DHT22;10160;50.926;4.374;2023-02-28T16:47:49;6.80;87.40
19999;DHT22;10160;50.926;4.374;2023-02-28T16:50:26;6.40;88.40
19999;DHT22;10160;50.926;4.374;2023-02-28T16:52:52;6.10;88.50
19999;DHT22;10160;50.926;4.374;2023-02-28T16:55:21;6.10;89.50
19999;DHT22;10160;50.926;4.374;2023-02-28T16:57:55;6.10;91.00
19999;DHT22;10160;50.926;4.374;2023-02-28T17:00:22;6.20;91.10
19999;DHT22;10160;50.926;4.374;2023-02-28T17:02:49;6.10;91.30
19999;DHT22;10160;50.926;4.374;2023-02-28T17:05:15;6.30;91.90
19999;DHT22;10160;50.926;4.374;2023-02-28T17:07:41;6.40;90.90
19999;DHT22;10160;50.926;4.374;2023-02-28T17:10:19;6.40;91.90
19999;DHT22;10160;50.926;4.374;2023-02-28T17:12:45;6.40;92.90
19999;DHT22;10160;50.926;4.374;2023-02-28T17:15:15;6.50;93.00
19999;DHT22;10160;50.926;4.374;2023-02-28T17:17:43;6.20;92.00
19999;DHT22;10160;50.926;4.374;2023-02-28T17:20:20;6.40;93.00
19999;DHT22;10160;50.926;4.374;2023-02-28T17:22:52;6.30;92.80
19999;DHT22;10160;50.926;4.374;2023-02-28T17:25:19;6.00;93.50
19999;DHT22;10160;50.926;4.374;2023-02-28T17:27:45;6.00;94.00
19999;DHT22;10160;50.926;4.374;2023-02-28T17:30:20;6.00;94.30
19999;DHT22;10160;50.926;4.374;2023-02-28T17:32:46;6.00;94.30
19999;DHT22;10160;50.926;4.374;2023-02-28T17:35:12;5.90;94.80
19999;DHT22;10160;50.926;4.374;2023-02-28T17:37:38;5.70;95.60
19999;DHT22;10160;50.926;4.374;2023-02-28T17:40:04;5.70;95.50
19999;DHT22;10160;50.926;4.374;2023-02-28T17:42:30;5.50;96.90
19999;DHT22;10160;50.926;4.374;2023-02-28T17:44:56;5.50;97.20
19999;DHT22;10160;50.926;4.374;2023-02-28T17:47:22;5.60;97.30
19999;DHT22;10160;50.926;4.374;2023-02-28T17:49:48;5.70;97.70
19999;DHT22;10160;50.926;4.374;2023-02-28T17:52:13;5.90;97.90
19999;DHT22;10160;50.926;4.374;2023-02-28T17:54:39;6.00;97.60
19999;DHT22;10160;50.926;4.374;2023-02-28T17:57:05;6.10;98.10
19999;DHT22;10160;50.926;4.374;2023-02-28T17:59:30;6.10;97.90
19999;DHT22;10160;50.926;4.374;2023-02-28T18:02:02;6.10;98.70
19999;DHT22;10160;50.926;4.374;2023-02-28T18:04:29;6.10;99.60
19999;DHT22;10160;50.926;4.374;2023-02-28T18:06:54;6.00;99.90
19999;DHT22;10160;50.926;4.374;2023-02-28T18:09:26;6.10;99.90
19999;DHT22;10160;50.926;4.374;2023-02-28T18:11:54;6.10;99.90
19999;DHT22;10160;50.926;4.374;2023-02-28T18:14:22;6.10;99.90
19999;DHT22;10160;50.926;4.374;2023-02-28T18:16:49;6.10;99.90
19999;DHT22;10160;50.926;4.374;2023-02-28T18:19:15;6.10;99.90
19999;DHT22;10160;50.926;4.374;2023-02-28T18:21:44;6.00;99.90
19999;DHT22;10160;50.926;4.374;2023-02-28T18:24:10;5.80;99.90
19999;DHT22;10160;50.926;4.374;2023-02-28T18:26:37;5.60;99.90
19999;DHT22;10160;50.926;4.374;2023-02-28T18:29:03;5.60;99.90